KHOU/HOU METAR and TAF weather

Enter ICAO airport designator
Station Type Date Time Source
KHOU METAR 2020/01/26 18:53 UTC NOAA

KHOU 261853Z 33006KT 10SM FEW020 SCT250 22/13 A2994 RMK AO2 SLP143 T02170133


Station Type Date Time Source
KHOU Decoded METAR 2020/01/26 18:53 UTC NOAA

HOUSTON HOBBY AIRPORT, TX, United States (KHOU) 29-38N 095-17W 36M
Jan 26, 2020 - 01:53 PM EST / 2020.01.26 1853 UTC
Wind: from the NNW (330 degrees) at 7 MPH (6 KT):0
Visibility: 10 mile(s):0
Sky conditions: partly cloudy
Temperature: 71.1 F (21.7 C)
Dew Point: 55.9 F (13.3 C)
Relative Humidity: 58%
Pressure (altimeter): 29.94 in. Hg (1013 hPa)
ob: KHOU 261853Z 33006KT 10SM FEW020 SCT250 22/13 A2994 RMK AO2 SLP143 T02170133
cycle: 19

Station Type Date Time Source
KHOU TAF 2020/01/26 19:57 UTC NOAA

TAF
AMD KHOU 261855Z 2619/2718 32007KT P6SM SCT020 BKN250
FM270500 VRB03KT P6SM SCT050
FM270700 VRB03KT 4SM BR BKN024
FM271100 VRB03KT 2SM BR BKN006
FM271600 14005KT P6SM BKN025

Example: see airport list